KIRK/IRK METAR and TAF weather

Enter ICAO airport designator
Station Type Date Time Source
KIRK METAR 2020/06/01 16:55 UTC NOAA

KIRK 011655Z AUTO 21013G19KT 10SM CLR 24/17 A3014 RMK AO2 SLP205 T02390167


Station Type Date Time Source
KIRK Decoded METAR 2020/06/01 16:55 UTC NOAA

KIRKSVILLE REGIONAL AIRPORT , MO, United States (KIRK) 40-06N 092-33W 293M
Jun 01, 2020 - 12:55 PM EDT / 2020.06.01 1655 UTC
Wind: from the SSW (210 degrees) at 15 MPH (13 KT) gusting to 22 MPH (19 KT):0
Visibility: 10 mile(s):0
Sky conditions: clear
Temperature: 75.0 F (23.9 C)
Dew Point: 62.1 F (16.7 C)
Relative Humidity: 64%
Pressure (altimeter): 30.14 in. Hg (1020 hPa)
ob: KIRK 011655Z AUTO 21013G19KT 10SM CLR 24/17 A3014 RMK AO2 SLP205 T02390167
cycle: 17

Station Type Date Time Source
KIRK TAF UTC NOAA

Error!

Example: see airport list